Time;durP1;ratioP1;P1;durP2;ratioP2;P2;SDS_P1;SDS_P2;PMS_P1;PMS_P2;Temp;Humidity;BMP_temperature;BMP_pressure;BME280_temperature;BME280_humidity;BME280_pressure;Samples;Min_cycle;Max_cycle;Signal;HPM_P1;HPM_P2
2022/08/20 00:01:37;;;;;;;3.80;0.30;;;;;;;20.44;60.09;101294.91;7387375;19;20511;-65
2022/08/20 00:04:05;;;;;;;3.17;0.38;;;;;;;20.44;60.17;101300.28;7384301;19;20022;-65
2022/08/20 00:06:33;;;;;;;5.03;0.30;;;;;;;20.42;60.45;101296.97;7387573;19;20033;-65
2022/08/20 00:09:00;;;;;;;5.88;0.40;;;;;;;20.40;61.14;101299.03;7386781;19;20037;-66
2022/08/20 00:11:27;;;;;;;3.38;0.20;;;;;;;20.40;60.72;101311.59;7387484;19;20514;-65
2022/08/20 00:13:58;;;;;;;2.30;0.30;;;;;;;20.36;60.77;101315.69;7387663;19;20029;-66
2022/08/20 00:16:31;;;;;;;5.25;0.73;;;;;;;20.34;61.84;101307.88;7387686;19;20044;-64
2022/08/20 00:19:00;;;;;;;5.80;0.52;;;;;;;20.34;61.29;101310.53;7383447;19;20834;-64
2022/08/20 00:21:27;;;;;;;4.70;0.40;;;;;;;20.32;61.05;101306.41;7386191;19;20017;-64
2022/08/20 00:23:57;;;;;;;2.38;0.40;;;;;;;20.28;60.92;101303.31;7386181;19;20015;-64
2022/08/20 00:26:24;;;;;;;3.58;0.30;;;;;;;20.23;61.50;101300.44;7386564;19;20022;-64
2022/08/20 00:28:52;;;;;;;4.47;0.30;;;;;;;20.21;61.19;101299.81;7386307;19;20710;-64
2022/08/20 00:31:22;;;;;;;6.63;0.60;;;;;;;20.20;62.50;101300.03;7386687;19;20351;-64
2022/08/20 00:33:51;;;;;;;3.00;0.40;;;;;;;20.18;61.54;101292.19;7385840;19;20003;-66
2022/08/20 00:36:18;;;;;;;4.65;0.32;;;;;;;20.18;61.71;101299.38;7387892;19;20017;-66
2022/08/20 00:38:46;;;;;;;3.80;0.30;;;;;;;20.19;62.87;101301.88;7384041;19;20039;-67
2022/08/20 00:41:20;;;;;;;3.47;0.40;;;;;;;20.19;61.42;101296.53;7386543;19;20006;-66
2022/08/20 00:44:12;;;;;;;3.75;0.40;;;;;;;20.15;61.14;101299.81;7386193;19;20017;-66
2022/08/20 00:46:42;;;;;;;4.05;0.32;;;;;;;20.13;61.84;101285.81;7384684;19;20019;-66
2022/08/20 00:49:23;;;;;;;5.43;0.40;;;;;;;20.11;61.58;101285.22;7384577;19;20018;-68
2022/08/20 00:52:11;;;;;;;2.67;0.38;;;;;;;20.11;62.27;101293.22;7386493;19;20022;-68
2022/08/20 00:54:54;;;;;;;3.47;0.70;;;;;;;20.08;61.70;101289.94;7385100;19;20384;-67
2022/08/20 00:57:29;;;;;;;4.28;0.30;;;;;;;20.04;61.49;101290.53;7384863;19;20097;-67
2022/08/20 01:00:21;;;;;;;5.03;0.32;;;;;;;20.00;62.04;101287.47;7385892;19;20021;-65
2022/08/20 01:02:49;;;;;;;6.15;0.30;;;;;;;19.97;62.15;101292.38;7387158;19;20017;-64
2022/08/20 01:05:17;;;;;;;3.92;0.50;;;;;;;19.95;63.84;101297.94;7383142;19;20019;-67
2022/08/20 01:07:44;;;;;;;2.83;0.30;;;;;;;19.94;62.81;101298.13;7385720;19;20018;-61
2022/08/20 01:10:18;;;;;;;4.05;0.30;;;;;;;19.94;62.86;101300.81;7386490;19;20620;-63
2022/08/20 01:12:48;;;;;;;3.00;0.32;;;;;;;19.86;63.19;101304.47;7385616;19;20031;-64
2022/08/20 01:15:27;;;;;;;2.08;0.20;;;;;;;19.83;64.20;101306.72;7385412;19;20022;-63
2022/08/20 01:17:59;;;;;;;2.20;0.20;;;;;;;19.83;63.73;101304.06;7385461;19;20041;-63
2022/08/20 01:20:32;;;;;;;2.17;0.30;;;;;;;19.77;63.66;101310.19;7380977;19;20019;-65
2022/08/20 01:26:03;;;;;;;4.28;0.30;;;;;;;19.77;64.53;101305.69;7385301;19;20521;-63
2022/08/20 01:28:36;;;;;;;3.55;0.30;;;;;;;19.80;64.07;101307.97;7385134;19;20451;-63
2022/08/20 01:31:06;;;;;;;4.57;0.40;;;;;;;19.79;63.91;101314.31;7384724;19;20010;-65
2022/08/20 01:33:39;;;;;;;5.43;0.40;;;;;;;19.73;63.81;101317.78;7386036;19;20022;-65
2022/08/20 01:36:13;;;;;;;3.58;0.20;;;;;;;19.65;64.45;101318.00;7381557;19;20019;-63
2022/08/20 01:38:41;;;;;;;3.72;0.30;;;;;;;19.62;64.99;101315.69;7382837;19;20014;-65
2022/08/20 01:41:27;;;;;;;3.28;0.30;;;;;;;19.67;66.05;101315.09;7383720;19;20022;-66
2022/08/20 01:43:55;;;;;;;4.13;0.30;;;;;;;19.69;64.43;101310.38;7384209;19;20373;-67
2022/08/20 01:46:31;;;;;;;6.22;0.30;;;;;;;19.67;64.95;101299.91;7385383;19;20042;-66
2022/08/20 01:49:19;;;;;;;4.78;0.30;;;;;;;19.65;65.08;101296.63;7380585;19;20015;-66
2022/08/20 01:51:52;;;;;;;2.55;0.30;;;;;;;19.62;65.05;101297.84;7385763;19;20020;-66
2022/08/20 01:54:20;;;;;;;2.90;0.32;;;;;;;19.59;65.56;101297.41;7381803;19;20041;-66
2022/08/20 01:57:04;;;;;;;4.03;0.40;;;;;;;19.57;65.40;101307.47;7384193;19;20078;-67
2022/08/20 01:59:32;;;;;;;3.22;0.30;;;;;;;19.55;65.00;101306.84;7380894;19;20031;-67
2022/08/20 02:02:01;;;;;;;3.22;0.45;;;;;;;19.51;64.84;101305.59;7383506;19;20007;-67
2022/08/20 02:04:29;;;;;;;4.00;0.30;;;;;;;19.47;64.95;101305.16;7378860;19;20006;-63
2022/08/20 02:07:00;;;;;;;4.00;0.32;;;;;;;19.45;65.40;101301.91;7384831;19;20015;-62
2022/08/20 02:09:30;;;;;;;4.57;0.40;;;;;;;19.40;65.54;101300.81;7383310;19;20337;-63
2022/08/20 02:11:59;;;;;;;1.85;0.30;;;;;;;19.37;65.44;101306.53;7385016;19;20506;-64
2022/08/20 02:14:27;;;;;;;4.90;0.40;;;;;;;19.35;66.41;101306.72;7383085;19;20094;-64
2022/08/20 02:16:57;;;;;;;4.45;0.50;;;;;;;19.34;65.90;101312.28;7384404;19;20041;-63
2022/08/20 02:19:34;;;;;;;5.28;0.40;;;;;;;19.32;65.70;101307.13;7381642;19;20019;-65
2022/08/20 02:22:20;;;;;;;4.13;0.30;;;;;;;19.27;66.09;101312.22;7383832;19;20018;-65
2022/08/20 02:24:48;;;;;;;6.03;0.65;;;;;;;19.26;66.66;101302.56;7383753;19;20034;-65
2022/08/20 02:27:15;;;;;;;4.78;0.40;;;;;;;19.25;66.36;101305.47;7383385;19;20022;-65
2022/08/20 02:29:42;;;;;;;4.78;0.50;;;;;;;19.22;66.53;101309.34;7384366;19;20010;-66
2022/08/20 02:32:10;;;;;;;2.45;0.30;;;;;;;19.21;66.77;101311.16;7384616;19;20015;-64
2022/08/20 02:34:57;;;;;;;2.67;0.30;;;;;;;19.20;66.85;101308.69;7382515;19;20360;-64
2022/08/20 02:37:24;;;;;;;4.43;0.68;;;;;;;19.18;66.07;101314.25;7383107;19;20031;-64
2022/08/20 02:39:51;;;;;;;4.65;0.38;;;;;;;19.15;66.55;101306.63;7385736;19;20431;-64
2022/08/20 02:42:18;;;;;;;6.43;0.30;;;;;;;19.15;66.93;101305.78;7383062;19;20480;-64
2022/08/20 02:44:45;;;;;;;4.72;0.32;;;;;;;19.15;66.97;101305.78;7383270;19;20028;-64
2022/08/20 02:47:12;;;;;;;3.47;0.60;;;;;;;19.12;67.13;101306.19;7388377;19;20015;-67
2022/08/20 02:49:39;;;;;;;4.28;0.30;;;;;;;19.10;67.82;101300.22;7388484;19;20370;-64
2022/08/20 02:52:07;;;;;;;5.75;0.40;;;;;;;19.06;67.44;101297.13;7392792;19;20378;-65
2022/08/20 02:54:34;;;;;;;4.40;0.30;;;;;;;19.04;67.57;101296.53;7391645;19;20010;-66
2022/08/20 02:57:03;;;;;;;4.38;0.40;;;;;;;19.00;67.89;101302.41;7393033;19;20014;-68
2022/08/20 02:59:30;;;;;;;4.32;0.50;;;;;;;18.95;67.93;101296.84;7390707;19;20035;-66
2022/08/20 03:01:57;;;;;;;2.78;0.40;;;;;;;18.92;68.03;101292.75;7389673;19;20508;-65
2022/08/20 03:04:29;;;;;;;2.00;0.20;;;;;;;18.90;68.12;101292.09;7386749;19;20126;-67
2022/08/20 03:06:58;;;;;;;2.97;0.30;;;;;;;18.88;68.50;101296.84;7392711;19;20350;-66
2022/08/20 03:09:26;;;;;;;5.68;0.30;;;;;;;18.85;68.81;101294.53;7389481;19;20033;-65
2022/08/20 03:11:53;;;;;;;5.38;0.40;;;;;;;18.84;68.80;101289.41;7390022;19;20086;-66
2022/08/20 03:14:20;;;;;;;3.13;0.30;;;;;;;18.82;69.07;101294.09;7388635;19;20018;-66
2022/08/20 03:16:47;;;;;;;6.22;0.50;;;;;;;18.79;69.32;101293.47;7392400;19;20378;-67
2022/08/20 03:19:14;;;;;;;3.10;0.30;;;;;;;18.79;69.04;101290.00;7386611;19;20561;-66
2022/08/20 03:21:42;;;;;;;3.75;0.35;;;;;;;18.76;69.29;101285.03;7390220;19;20027;-65
2022/08/20 03:24:09;;;;;;;2.60;0.30;;;;;;;18.74;70.27;101287.91;7387501;19;20090;-66
2022/08/20 03:26:37;;;;;;;4.00;0.40;;;;;;;18.74;70.16;101289.75;7390011;19;20018;-67
2022/08/20 03:29:04;;;;;;;7.07;0.40;;;;;;;18.72;69.78;101292.63;7389930;19;20540;-67
2022/08/20 03:31:31;;;;;;;4.78;0.70;;;;;;;18.71;69.98;101296.28;7388435;19;20021;-65
2022/08/20 03:33:59;;;;;;;3.50;0.35;;;;;;;18.66;69.96;101287.22;7387956;19;20620;-66
2022/08/20 03:36:27;;;;;;;5.07;0.50;;;;;;;18.62;70.46;101288.63;7388456;19;20011;-65
2022/08/20 03:38:57;;;;;;;6.18;0.40;;;;;;;18.65;70.82;101290.91;7385204;19;20014;-65
2022/08/20 03:41:25;;;;;;;2.72;0.40;;;;;;;18.67;70.49;101297.72;7387570;19;20093;-65
2022/08/20 03:43:53;;;;;;;4.90;0.80;;;;;;;18.68;70.71;101299.38;7389301;19;20002;-67
2022/08/20 03:46:20;;;;;;;4.15;0.70;;;;;;;18.67;70.74;101302.22;7390189;19;20442;-67
2022/08/20 03:48:53;;;;;;;5.43;0.30;;;;;;;18.63;71.11;101300.97;7388335;19;20010;-66
2022/08/20 03:51:30;;;;;;;4.47;0.50;;;;;;;18.61;70.89;101297.66;7387303;19;20010;-65
2022/08/20 03:54:11;;;;;;;3.97;0.30;;;;;;;18.60;71.24;101298.66;7384124;19;20022;-63
2022/08/20 03:56:38;;;;;;;5.78;0.50;;;;;;;18.59;71.50;101294.38;7390569;19;20035;-66
2022/08/20 03:59:05;;;;;;;6.03;0.30;;;;;;;18.59;72.11;101289.84;7384455;19;20601;-66
2022/08/20 04:01:32;;;;;;;5.45;0.50;;;;;;;18.55;71.56;101298.41;7388135;19;20011;-65
2022/08/20 04:04:12;;;;;;;5.55;0.40;;;;;;;18.53;71.75;101287.13;7384679;19;21012;-67
2022/08/20 04:06:40;;;;;;;3.45;0.50;;;;;;;18.49;72.20;101286.66;7388389;19;20015;-67
2022/08/20 04:09:08;;;;;;;3.60;0.40;;;;;;;18.50;72.37;101285.66;7385043;19;20011;-67
2022/08/20 04:11:39;;;;;;;4.35;0.30;;;;;;;18.50;72.03;101293.63;7388333;19;20010;-67
2022/08/20 04:14:06;;;;;;;6.40;0.60;;;;;;;18.45;72.16;101292.56;7386988;19;20014;-66
2022/08/20 04:16:36;;;;;;;6.38;0.50;;;;;;;18.42;72.55;101293.78;7387542;19;20025;-66
2022/08/20 04:19:03;;;;;;;4.97;0.30;;;;;;;18.39;72.35;101292.31;7382789;19;20028;-64
2022/08/20 04:21:33;;;;;;;9.23;0.30;;;;;;;18.37;72.44;101293.53;7386343;19;20420;-62
2022/08/20 04:24:02;;;;;;;5.13;0.40;;;;;;;18.37;72.64;101282.88;7386029;19;20006;-63
2022/08/20 04:26:30;;;;;;;6.55;1.17;;;;;;;18.38;72.96;101289.88;7387172;19;20123;-63
2022/08/20 04:28:57;;;;;;;6.32;1.02;;;;;;;18.36;72.84;101286.56;7386859;19;20041;-63
2022/08/20 04:31:32;;;;;;;3.92;0.73;;;;;;;18.32;72.45;101288.78;7388356;19;20029;-63
2022/08/20 04:34:06;;;;;;;4.68;0.40;;;;;;;18.28;72.54;101295.53;7383241;19;20018;-62
2022/08/20 04:36:34;;;;;;;4.70;0.43;;;;;;;18.28;73.52;101300.84;7387968;19;20014;-62
2022/08/20 04:39:01;;;;;;;6.60;0.32;;;;;;;18.29;73.57;101301.66;7384841;19;20085;-65
2022/08/20 04:41:30;;;;;;;6.72;0.40;;;;;;;18.27;73.03;101306.38;7386395;19;20497;-64
2022/08/20 04:43:57;;;;;;;6.15;0.45;;;;;;;18.24;72.71;101312.06;7386421;19;20020;-64
2022/08/20 04:46:27;;;;;;;5.20;0.40;;;;;;;18.18;73.22;101304.84;7387151;19;20029;-64
2022/08/20 04:48:55;;;;;;;3.80;0.38;;;;;;;18.15;73.04;101311.38;7385495;19;20006;-63
2022/08/20 04:51:24;;;;;;;5.38;0.82;;;;;;;18.14;73.92;101309.72;7384723;19;20015;-63
2022/08/20 04:53:55;;;;;;;3.70;0.73;;;;;;;18.13;73.64;101305.44;7386173;19;20018;-63
2022/08/20 04:56:24;;;;;;;5.15;0.20;;;;;;;18.15;73.68;101310.53;7387079;19;20046;-63
2022/08/20 04:58:55;;;;;;;2.20;0.30;;;;;;;18.11;73.24;101312.78;7384611;19;20022;-63
2022/08/20 05:01:23;;;;;;;4.07;0.40;;;;;;;18.06;73.88;101301.88;7386165;19;20017;-63
2022/08/20 05:03:53;;;;;;;5.55;0.35;;;;;;;18.05;73.70;101304.72;7385110;19;20042;-63
2022/08/20 05:06:24;;;;;;;5.43;0.80;;;;;;;18.06;73.74;101299.19;7383438;19;20464;-63
2022/08/20 05:08:53;;;;;;;5.38;1.95;;;;;;;18.10;74.33;101310.28;7384920;19;20393;-63
2022/08/20 05:11:21;;;;;;;3.80;0.30;;;;;;;18.14;74.48;101306.22;7385553;19;20021;-63
2022/08/20 05:14:04;;;;;;;6.70;0.38;;;;;;;18.11;73.51;101299.44;7385445;19;20428;-64
2022/08/20 05:16:36;;;;;;;2.80;0.30;;;;;;;18.10;73.57;101311.13;7386971;19;20024;-63
2022/08/20 05:19:05;;;;;;;7.88;0.50;;;;;;;18.11;74.05;101317.28;7382527;19;20014;-65
2022/08/20 05:21:32;;;;;;;4.20;0.38;;;;;;;18.10;74.05;101307.63;7386308;19;20115;-63
2022/08/20 05:23:59;;;;;;;7.07;0.50;;;;;;;18.05;73.99;101313.53;7384769;19;20078;-63
2022/08/20 05:26:26;;;;;;;6.30;0.80;;;;;;;18.05;74.04;101321.50;7386827;19;20033;-64
2022/08/20 05:28:53;;;;;;;7.25;0.75;;;;;;;18.06;74.55;101323.16;7381867;19;20014;-65
2022/08/20 05:31:28;;;;;;;4.90;0.40;;;;;;;18.06;74.53;101325.84;7385912;19;20541;-66
2022/08/20 05:34:10;;;;;;;3.00;0.68;;;;;;;18.09;74.55;101328.09;7382276;19;20383;-68
2022/08/20 05:36:48;;;;;;;7.50;0.50;;;;;;;18.13;74.35;101339.22;7385903;19;20015;-66
2022/08/20 05:39:21;;;;;;;3.28;0.40;;;;;;;18.11;73.97;101328.75;7383952;19;20011;-67
2022/08/20 05:41:50;;;;;;;8.65;0.47;;;;;;;18.10;74.08;101340.41;7385072;19;20014;-67
2022/08/20 05:44:17;;;;;;;3.00;0.50;;;;;;;18.08;74.73;101345.09;7384579;19;20007;-67
2022/08/20 05:46:45;;;;;;;9.02;0.60;;;;;;;18.11;74.70;101347.41;7385892;19;20479;-67
2022/08/20 05:49:17;;;;;;;4.75;0.40;;;;;;;18.10;74.49;101340.41;7381863;19;20018;-67
2022/08/20 05:51:45;;;;;;;4.95;0.30;;;;;;;18.11;74.26;101339.41;7385034;19;20672;-67
2022/08/20 05:54:14;;;;;;;4.53;0.40;;;;;;;18.12;74.38;101342.91;7384546;19;20018;-67
2022/08/20 05:56:41;;;;;;;4.82;0.60;;;;;;;18.14;74.31;101336.34;7385284;19;20006;-68
2022/08/20 05:59:09;;;;;;;6.20;0.88;;;;;;;18.15;74.09;101339.84;7379707;19;20488;-67
2022/08/20 06:01:38;;;;;;;3.92;0.40;;;;;;;18.18;74.34;101344.81;7382898;19;20751;-67
2022/08/20 06:07:01;;;;;;;6.32;0.70;;;;;;;18.23;74.14;101347.72;7384653;19;20002;-67
2022/08/20 06:09:29;;;;;;;5.15;0.45;;;;;;;18.23;74.27;101340.56;7377203;19;20019;-67
2022/08/20 06:12:08;;;;;;;6.20;0.40;;;;;;;18.22;73.76;101354.06;7384692;19;20055;-66
2022/08/20 06:14:35;;;;;;;2.88;0.30;;;;;;;18.21;73.77;101352.41;7382642;19;20028;-65
2022/08/20 06:17:10;;;;;;;5.70;0.40;;;;;;;18.18;73.99;101353.63;7385184;19;20014;-65
2022/08/20 06:19:40;;;;;;;5.53;0.40;;;;;;;18.16;74.12;101352.16;7379736;19;20014;-64
2022/08/20 06:22:10;;;;;;;7.57;0.50;;;;;;;18.14;74.84;101356.84;7382361;19;20037;-65
2022/08/20 06:24:51;;;;;;;5.88;0.43;;;;;;;18.17;74.49;101359.13;7383992;19;20034;-64
2022/08/20 06:27:18;;;;;;;6.57;0.63;;;;;;;18.20;74.47;101351.59;7382963;19;20018;-64
2022/08/20 06:29:46;;;;;;;6.72;0.70;;;;;;;18.20;74.54;101359.59;7383274;19;20010;-65
2022/08/20 06:32:14;;;;;;;8.02;0.60;;;;;;;18.19;74.29;101360.59;7381313;19;20010;-64
2022/08/20 06:34:40;;;;;;;6.40;0.40;;;;;;;18.25;74.74;101361.66;7380293;19;20264;-65
2022/08/20 06:37:19;;;;;;;3.75;0.70;;;;;;;18.27;75.35;101368.47;7382528;19;20438;-65
2022/08/20 06:39:46;;;;;;;11.82;0.55;;;;;;;18.32;74.99;101367.91;7381818;19;20511;-65
2022/08/20 06:42:13;;;;;;;5.75;0.68;;;;;;;18.35;74.55;101362.19;7381203;19;20359;-65
2022/08/20 06:44:49;;;;;;;6.90;0.57;;;;;;;18.39;74.54;101364.28;7384201;19;20010;-64
2022/08/20 06:47:19;;;;;;;4.80;0.38;;;;;;;18.42;74.49;101367.59;7382260;19;20331;-64
2022/08/20 06:49:47;;;;;;;4.63;0.40;;;;;;;18.43;74.29;101369.25;7378474;19;20030;-64
2022/08/20 06:52:17;;;;;;;7.22;0.40;;;;;;;18.47;74.40;101360.66;7384040;19;20491;-64
2022/08/20 06:54:44;;;;;;;7.45;0.60;;;;;;;18.51;74.26;101363.75;7382078;19;20041;-63
2022/08/20 06:57:11;;;;;;;6.20;0.50;;;;;;;18.53;75.13;101359.91;7382836;19;20029;-65
2022/08/20 06:59:38;;;;;;;5.45;0.68;;;;;;;18.53;74.66;101357.25;7382589;19;20018;-65
2022/08/20 07:02:08;;;;;;;3.15;0.40;;;;;;;18.57;74.21;101360.38;7379468;19;20353;-65
2022/08/20 07:04:36;;;;;;;4.80;0.57;;;;;;;18.59;74.66;101353.03;7377434;19;20568;-66
2022/08/20 07:07:03;;;;;;;6.15;0.40;;;;;;;18.61;74.81;101358.97;7382789;19;20013;-65
2022/08/20 07:09:30;;;;;;;6.22;0.40;;;;;;;18.63;74.25;101360.44;7381849;19;20313;-65
2022/08/20 07:11:57;;;;;;;5.65;0.40;;;;;;;18.62;74.25;101358.78;7381542;19;20572;-68
2022/08/20 07:14:24;;;;;;;6.50;0.80;;;;;;;18.66;74.29;101354.72;7382462;19;20396;-67
2022/08/20 07:16:51;;;;;;;6.75;0.40;;;;;;;18.69;74.19;101353.53;7382160;19;20018;-66
2022/08/20 07:19:18;;;;;;;4.22;0.40;;;;;;;18.70;74.10;101355.13;7377916;19;20024;-66
2022/08/20 07:21:46;;;;;;;6.82;0.32;;;;;;;18.72;74.26;101345.13;7381258;19;20017;-66
2022/08/20 07:24:13;;;;;;;3.58;0.38;;;;;;;18.72;74.23;101345.94;7379848;19;20546;-64
2022/08/20 07:26:40;;;;;;;9.50;0.30;;;;;;;18.73;74.15;101346.78;7381946;19;20564;-64
2022/08/20 07:29:07;;;;;;;5.13;0.68;;;;;;;18.73;73.93;101344.09;7382505;19;20011;-64
2022/08/20 07:34:19;;;;;;;7.75;0.40;;;;;;;18.73;74.52;101347.59;7382140;19;20032;-66
2022/08/20 07:36:47;;;;;;;6.30;0.40;;;;;;;18.78;74.65;101353.19;7388643;19;20032;-67
2022/08/20 07:39:14;;;;;;;6.00;0.32;;;;;;;18.84;74.47;101353.44;7388842;19;20019;-67
2022/08/20 07:41:42;;;;;;;2.90;0.35;;;;;;;18.92;74.60;101364.75;7390446;19;20365;-69
2022/08/20 07:44:20;;;;;;;2.60;0.30;;;;;;;18.99;74.73;101367.50;7387929;19;20014;-67
2022/08/20 07:46:58;;;;;;;8.40;0.63;;;;;;;19.07;74.76;101367.31;7390638;19;20167;-67
2022/08/20 07:49:25;;;;;;;6.88;0.43;;;;;;;19.12;74.67;101364.91;7386114;19;20015;-66
2022/08/20 07:51:51;;;;;;;6.55;0.88;;;;;;;19.17;74.56;101371.28;7389334;19;20010;-67
2022/08/20 07:54:18;;;;;;;14.68;4.43;;;;;;;19.24;74.36;101374.03;7387992;19;20032;-66
2022/08/20 07:56:45;;;;;;;8.45;1.00;;;;;;;19.32;74.07;101375.69;7389924;19;20333;-67
2022/08/20 07:59:15;;;;;;;7.28;0.30;;;;;;;19.37;73.77;101365.25;7388505;19;20018;-67
2022/08/20 08:01:41;;;;;;;3.60;0.60;;;;;;;19.43;73.50;101365.28;7389532;19;20018;-67
2022/08/20 08:04:08;;;;;;;6.82;0.50;;;;;;;19.49;73.22;101371.72;7385902;19;20086;-67
2022/08/20 08:06:35;;;;;;;5.78;0.50;;;;;;;19.54;73.18;101374.63;7389101;19;20015;-68
2022/08/20 08:09:10;;;;;;;6.50;0.40;;;;;;;19.58;74.06;101365.19;7386617;19;20014;-66
2022/08/20 08:11:40;;;;;;;7.55;0.50;;;;;;;19.63;73.17;101376.09;7389819;19;20018;-65
2022/08/20 08:14:14;;;;;;;5.80;0.30;;;;;;;19.68;73.09;101364.81;7387486;19;20455;-65
2022/08/20 08:16:44;;;;;;;4.95;0.30;;;;;;;19.74;73.66;101362.19;7390222;19;20015;-64
2022/08/20 08:19:14;;;;;;;5.15;0.40;;;;;;;19.78;73.22;101363.41;7385842;19;20026;-65
2022/08/20 08:21:43;;;;;;;6.72;0.60;;;;;;;19.83;72.64;101371.66;7389604;19;20458;-64
2022/08/20 08:24:10;;;;;;;10.00;0.50;;;;;;;19.89;72.62;101373.53;7387632;19;20049;-67
2022/08/20 08:26:44;;;;;;;6.85;0.60;;;;;;;19.96;73.38;101371.69;7390029;19;20538;-66
2022/08/20 08:29:12;;;;;;;8.48;0.50;;;;;;;20.01;72.97;101363.09;7388225;19;20014;-65
2022/08/20 08:31:40;;;;;;;8.07;0.68;;;;;;;20.07;72.62;101370.28;7390002;19;20174;-66
2022/08/20 08:34:07;;;;;;;5.55;0.43;;;;;;;20.11;71.80;101355.53;7383336;19;20025;-65
2022/08/20 08:36:34;;;;;;;5.20;0.40;;;;;;;20.16;71.34;101361.09;7389432;19;20132;-65
2022/08/20 08:39:01;;;;;;;7.03;0.40;;;;;;;20.22;71.09;101359.41;7386666;19;20022;-66
2022/08/20 08:41:39;;;;;;;6.32;0.40;;;;;;;20.26;71.18;101363.38;7389171;19;20023;-65
2022/08/20 08:44:11;;;;;;;6.38;0.47;;;;;;;20.28;71.21;101361.28;7385907;19;20025;-65
2022/08/20 08:46:42;;;;;;;5.38;0.35;;;;;;;20.30;70.25;101359.25;7386892;19;20494;-65
2022/08/20 08:49:13;;;;;;;5.00;0.40;;;;;;;20.36;70.54;101361.97;7385102;19;20577;-64
2022/08/20 08:51:43;;;;;;;6.15;0.40;;;;;;;20.41;70.08;101356.84;7387765;19;20020;-64
2022/08/20 08:54:16;;;;;;;4.95;0.55;;;;;;;20.46;69.64;101357.06;7386703;19;20026;-65
2022/08/20 08:56:43;;;;;;;8.38;0.50;;;;;;;20.55;69.16;101362.19;7387073;19;20039;-65
2022/08/20 08:59:17;;;;;;;5.60;0.40;;;;;;;20.57;68.74;101354.78;7385730;19;20014;-65
2022/08/20 09:01:58;;;;;;;9.38;0.50;;;;;;;20.65;68.96;101355.41;7387630;19;20017;-64
2022/08/20 09:04:38;;;;;;;4.75;0.38;;;;;;;20.73;69.25;101352.50;7383646;19;20416;-64
2022/08/20 09:07:10;;;;;;;5.30;0.30;;;;;;;20.82;68.88;101351.28;7388317;19;20343;-66
2022/08/20 09:09:41;;;;;;;6.72;0.47;;;;;;;20.87;67.85;101348.81;7385470;19;20014;-65
2022/08/20 09:12:13;;;;;;;5.68;0.50;;;;;;;20.92;66.69;101353.53;7383989;19;20021;-66
2022/08/20 09:14:40;;;;;;;2.25;0.30;;;;;;;20.95;64.74;101342.41;7385757;19;20032;-64
2022/08/20 09:17:07;;;;;;;6.13;0.40;;;;;;;20.99;64.37;101351.66;7382906;19;20014;-65
2022/08/20 09:19:34;;;;;;;4.28;0.40;;;;;;;21.02;64.67;101350.44;7383227;19;20335;-64
2022/08/20 09:22:14;;;;;;;6.38;0.55;;;;;;;21.08;65.08;101353.09;7387270;19;20015;-66
2022/08/20 09:24:41;;;;;;;3.90;0.30;;;;;;;21.11;64.90;101350.00;7384766;19;20094;-65
2022/08/20 09:27:09;;;;;;;6.30;0.35;;;;;;;21.13;64.38;101355.97;7385711;19;20474;-65
2022/08/20 09:29:36;;;;;;;3.50;0.40;;;;;;;21.16;64.69;101350.22;7386058;19;20688;-64
2022/08/20 09:32:16;;;;;;;3.10;0.88;;;;;;;21.17;64.97;101348.38;7386342;19;20018;-66
2022/08/20 09:34:46;;;;;;;4.68;0.50;;;;;;;21.16;63.41;101352.91;7382124;19;20018;-66
2022/08/20 09:37:14;;;;;;;3.67;0.30;;;;;;;21.18;63.80;101350.03;7386510;19;20014;-66
2022/08/20 09:39:41;;;;;;;3.75;0.30;;;;;;;21.20;62.72;101345.28;7385277;19;20021;-66
2022/08/20 09:42:17;;;;;;;3.85;0.30;;;;;;;21.18;62.83;101358.06;7386126;19;20030;-65
2022/08/20 09:44:44;;;;;;;7.18;0.32;;;;;;;21.18;61.96;101358.06;7385406;19;20094;-66
2022/08/20 09:47:12;;;;;;;5.55;0.30;;;;;;;21.13;62.26;101355.16;7385547;19;20021;-66
2022/08/20 09:49:39;;;;;;;2.80;0.30;;;;;;;21.14;63.48;101351.47;7381389;19;20010;-65
2022/08/20 09:52:20;;;;;;;4.45;0.30;;;;;;;21.20;63.79;101353.31;7386570;19;20498;-65
2022/08/20 09:54:48;;;;;;;6.60;0.30;;;;;;;21.27;63.85;101354.13;7385770;19;20066;-65
2022/08/20 09:57:16;;;;;;;5.30;0.30;;;;;;;21.32;63.61;101349.78;7383396;19;20019;-65
2022/08/20 09:59:56;;;;;;;4.05;0.30;;;;;;;21.38;62.76;101350.81;7384044;19;20006;-65
2022/08/20 10:02:23;;;;;;;5.85;0.63;;;;;;;21.39;62.90;101341.72;7385245;19;20026;-66
2022/08/20 10:04:50;;;;;;;3.92;0.30;;;;;;;21.40;62.31;101342.53;7383700;19;20126;-65
2022/08/20 10:07:18;;;;;;;5.40;0.63;;;;;;;21.45;61.80;101337.38;7385874;19;20035;-65
2022/08/20 10:09:44;;;;;;;3.55;0.40;;;;;;;21.48;60.80;101335.13;7382638;19;20017;-65
2022/08/20 10:12:12;;;;;;;4.65;0.30;;;;;;;21.53;61.71;101326.44;7384427;19;20387;-64
2022/08/20 10:14:39;;;;;;;5.65;0.35;;;;;;;21.64;61.67;101325.75;7384081;19;20006;-65
2022/08/20 10:17:06;;;;;;;1.85;0.30;;;;;;;21.72;61.19;101328.19;7383777;19;20018;-65
2022/08/20 10:19:33;;;;;;;2.63;0.22;;;;;;;21.76;59.54;101324.88;7381474;19;20113;-64
2022/08/20 10:22:10;;;;;;;3.80;0.40;;;;;;;21.81;59.19;101326.09;7385085;19;20343;-65
2022/08/20 10:24:38;;;;;;;5.82;0.40;;;;;;;21.87;60.09;101325.22;7380313;19;20022;-65
2022/08/20 10:27:06;;;;;;;4.00;0.45;;;;;;;21.98;64.53;101320.06;7384546;19;20018;-65
2022/08/20 10:29:33;;;;;;;3.20;0.30;;;;;;;22.09;62.87;101321.22;7384401;19;20018;-64
2022/08/20 10:32:14;;;;;;;7.20;0.40;;;;;;;22.18;63.12;101318.06;7382623;19;20453;-64
2022/08/20 10:34:43;;;;;;;2.67;0.40;;;;;;;22.22;61.27;101323.81;7380408;19;20101;-64
2022/08/20 10:37:20;;;;;;;4.47;0.40;;;;;;;22.21;60.14;101316.78;7382898;19;20010;-64
2022/08/20 10:39:47;;;;;;;9.35;0.60;;;;;;;22.22;61.63;101315.75;7382972;19;20276;-68
2022/08/20 10:42:14;;;;;;;4.13;0.40;;;;;;;22.19;58.79;101316.22;7382412;19;20015;-65
2022/08/20 10:44:41;;;;;;;5.00;0.30;;;;;;;22.22;60.95;101323.81;7380798;19;20022;-63
2022/08/20 10:47:19;;;;;;;5.63;0.40;;;;;;;22.25;60.54;101317.19;7382558;19;20013;-64
2022/08/20 10:49:47;;;;;;;9.32;1.13;;;;;;;22.25;60.20;101317.19;7378644;19;20014;-64
2022/08/20 10:52:14;;;;;;;4.13;0.40;;;;;;;22.25;59.01;101326.03;7384954;19;20010;-62
2022/08/20 10:54:41;;;;;;;5.57;0.40;;;;;;;22.29;60.02;101313.88;7380273;19;20426;-63
2022/08/20 10:57:16;;;;;;;4.72;0.40;;;;;;;22.34;59.31;101318.56;7383442;19;20014;-63
2022/08/20 10:59:45;;;;;;;5.35;0.50;;;;;;;22.37;59.50;101315.44;7382436;19;20017;-63
2022/08/20 11:02:15;;;;;;;2.83;0.38;;;;;;;22.38;58.76;101307.19;7384320;19;20014;-63
2022/08/20 11:04:42;;;;;;;4.03;0.40;;;;;;;22.39;59.83;101298.09;7378547;19;20045;-63
2022/08/20 11:07:27;;;;;;;2.45;0.25;;;;;;;22.40;58.80;101302.41;7384702;19;20015;-63
2022/08/20 11:10:14;;;;;;;3.95;0.22;;;;;;;22.41;57.57;101305.91;7389266;19;20288;-63
2022/08/20 11:12:41;;;;;;;6.55;0.55;;;;;;;22.39;57.15;101302.66;7390551;19;20724;-63
2022/08/20 11:15:12;;;;;;;3.78;0.30;;;;;;;22.38;58.08;101292.94;7389379;19;20015;-67
2022/08/20 11:17:41;;;;;;;3.70;0.30;;;;;;;22.40;58.71;101294.34;7389529;19;20021;-69
2022/08/20 11:20:10;;;;;;;1.75;0.22;;;;;;;22.45;56.88;101294.53;7387024;19;20927;-68
2022/08/20 11:22:37;;;;;;;4.72;0.25;;;;;;;22.49;55.41;101298.44;7386143;19;20039;-67
2022/08/20 11:25:06;;;;;;;2.88;0.30;;;;;;;22.57;55.82;101303.50;7388857;19;20090;-68
2022/08/20 11:27:37;;;;;;;2.17;0.30;;;;;;;22.64;56.37;101291.91;7388963;19;20007;-66
2022/08/20 11:30:07;;;;;;;2.45;0.30;;;;;;;22.64;56.15;101295.41;7391739;19;20483;-68
2022/08/20 11:32:34;;;;;;;2.63;0.20;;;;;;;22.69;56.21;101292.88;7390779;19;20019;-68
2022/08/20 11:35:02;;;;;;;3.40;0.38;;;;;;;22.75;55.67;101283.97;7386381;19;20050;-64
2022/08/20 11:37:50;;;;;;;3.67;0.30;;;;;;;22.80;55.93;101288.69;7388472;19;20022;-65
2022/08/20 11:40:17;;;;;;;3.42;0.25;;;;;;;22.80;54.91;101300.25;7390102;19;20014;-65
2022/08/20 11:42:46;;;;;;;2.33;0.30;;;;;;;22.75;55.11;101293.91;7390775;19;20086;-65
2022/08/20 11:45:33;;;;;;;4.00;0.28;;;;;;;22.74;56.02;101287.72;7390561;19;20457;-66
2022/08/20 11:48:04;;;;;;;3.75;0.20;;;;;;;22.74;57.62;101284.19;7388243;19;20083;-65